sensor_id;sensor_type;location;lat;lon;timestamp;P1;durP1;ratioP1;P2;durP2;ratioP2
20533;SDS011;12929;56.822;26.056;2023-07-31T00:00:54;6.47;;;5.35;;
20533;SDS011;12929;56.822;26.056;2023-07-31T00:03:22;8.80;;;5.80;;
20533;SDS011;12929;56.822;26.056;2023-07-31T00:05:50;6.43;;;4.30;;
20533;SDS011;12929;56.822;26.056;2023-07-31T00:08:17;7.47;;;5.10;;
20533;SDS011;12929;56.822;26.056;2023-07-31T00:10:45;6.35;;;5.10;;
20533;SDS011;12929;56.822;26.056;2023-07-31T00:13:13;9.85;;;5.53;;
20533;SDS011;12929;56.822;26.056;2023-07-31T00:15:40;6.32;;;4.60;;
20533;SDS011;12929;56.822;26.056;2023-07-31T00:18:08;4.97;;;4.00;;
20533;SDS011;12929;56.822;26.056;2023-07-31T00:20:36;8.93;;;5.68;;
20533;SDS011;12929;56.822;26.056;2023-07-31T00:23:03;6.38;;;4.40;;
20533;SDS011;12929;56.822;26.056;2023-07-31T00:25:31;8.57;;;5.28;;
20533;SDS011;12929;56.822;26.056;2023-07-31T00:27:59;5.90;;;4.35;;
20533;SDS011;12929;56.822;26.056;2023-07-31T00:30:26;6.95;;;4.40;;
20533;SDS011;12929;56.822;26.056;2023-07-31T00:32:54;8.05;;;4.43;;
20533;SDS011;12929;56.822;26.056;2023-07-31T00:35:22;7.18;;;4.43;;
20533;SDS011;12929;56.822;26.056;2023-07-31T00:37:51;5.28;;;4.13;;
20533;SDS011;12929;56.822;26.056;2023-07-31T00:40:19;8.07;;;3.28;;
20533;SDS011;12929;56.822;26.056;2023-07-31T00:42:46;4.25;;;3.50;;
20533;SDS011;12929;56.822;26.056;2023-07-31T00:45:14;4.10;;;3.55;;
20533;SDS011;12929;56.822;26.056;2023-07-31T00:47:42;5.88;;;3.63;;
20533;SDS011;12929;56.822;26.056;2023-07-31T00:50:10;5.15;;;3.70;;
20533;SDS011;12929;56.822;26.056;2023-07-31T00:52:37;5.20;;;3.80;;
20533;SDS011;12929;56.822;26.056;2023-07-31T00:55:05;5.88;;;3.47;;
20533;SDS011;12929;56.822;26.056;2023-07-31T00:57:33;6.10;;;3.97;;
20533;SDS011;12929;56.822;26.056;2023-07-31T01:00:03;8.00;;;4.40;;
20533;SDS011;12929;56.822;26.056;2023-07-31T01:02:31;7.47;;;4.43;;
20533;SDS011;12929;56.822;26.056;2023-07-31T01:04:59;4.95;;;4.32;;
20533;SDS011;12929;56.822;26.056;2023-07-31T01:12:47;4.85;;;3.90;;
20533;SDS011;12929;56.822;26.056;2023-07-31T01:15:17;5.97;;;4.03;;
20533;SDS011;12929;56.822;26.056;2023-07-31T01:17:45;5.07;;;3.95;;
20533;SDS011;12929;56.822;26.056;2023-07-31T01:20:20;5.63;;;3.70;;
20533;SDS011;12929;56.822;26.056;2023-07-31T01:28:13;5.63;;;4.53;;
20533;SDS011;12929;56.822;26.056;2023-07-31T01:30:48;7.35;;;3.92;;
20533;SDS011;12929;56.822;26.056;2023-07-31T01:33:16;7.25;;;4.18;;
20533;SDS011;12929;56.822;26.056;2023-07-31T01:35:44;6.63;;;3.80;;
20533;SDS011;12929;56.822;26.056;2023-07-31T01:38:13;4.10;;;3.47;;
20533;SDS011;12929;56.822;26.056;2023-07-31T01:40:41;5.70;;;3.67;;
20533;SDS011;12929;56.822;26.056;2023-07-31T01:43:09;5.25;;;3.55;;
20533;SDS011;12929;56.822;26.056;2023-07-31T01:45:37;4.90;;;3.50;;
20533;SDS011;12929;56.822;26.056;2023-07-31T01:48:04;11.00;;;4.13;;
20533;SDS011;12929;56.822;26.056;2023-07-31T01:50:32;5.97;;;4.38;;
20533;SDS011;12929;56.822;26.056;2023-07-31T01:52:59;10.82;;;6.00;;
20533;SDS011;12929;56.822;26.056;2023-07-31T01:55:27;7.65;;;5.35;;
20533;SDS011;12929;56.822;26.056;2023-07-31T01:57:54;7.03;;;5.40;;
20533;SDS011;12929;56.822;26.056;2023-07-31T02:00:22;7.40;;;4.95;;
20533;SDS011;12929;56.822;26.056;2023-07-31T02:02:49;10.07;;;5.60;;
20533;SDS011;12929;56.822;26.056;2023-07-31T02:05:18;10.40;;;5.88;;
20533;SDS011;12929;56.822;26.056;2023-07-31T02:07:46;6.55;;;4.95;;
20533;SDS011;12929;56.822;26.056;2023-07-31T02:10:13;9.85;;;5.45;;
20533;SDS011;12929;56.822;26.056;2023-07-31T02:12:41;8.40;;;5.13;;
20533;SDS011;12929;56.822;26.056;2023-07-31T02:15:09;7.90;;;4.85;;
20533;SDS011;12929;56.822;26.056;2023-07-31T02:17:36;7.13;;;3.95;;
20533;SDS011;12929;56.822;26.056;2023-07-31T02:20:04;7.13;;;4.60;;
20533;SDS011;12929;56.822;26.056;2023-07-31T02:22:33;9.25;;;5.85;;
20533;SDS011;12929;56.822;26.056;2023-07-31T02:25:01;9.25;;;6.53;;
20533;SDS011;12929;56.822;26.056;2023-07-31T02:27:29;10.32;;;5.57;;
20533;SDS011;12929;56.822;26.056;2023-07-31T02:29:56;6.32;;;4.47;;
20533;SDS011;12929;56.822;26.056;2023-07-31T02:32:26;8.82;;;4.78;;
20533;SDS011;12929;56.822;26.056;2023-07-31T02:34:54;7.15;;;4.00;;
20533;SDS011;12929;56.822;26.056;2023-07-31T02:37:21;5.82;;;4.47;;
20533;SDS011;12929;56.822;26.056;2023-07-31T02:39:48;8.30;;;4.70;;
20533;SDS011;12929;56.822;26.056;2023-07-31T02:42:16;7.10;;;4.35;;
20533;SDS011;12929;56.822;26.056;2023-07-31T02:44:44;7.45;;;4.88;;
20533;SDS011;12929;56.822;26.056;2023-07-31T02:47:11;7.70;;;4.97;;
20533;SDS011;12929;56.822;26.056;2023-07-31T02:49:39;6.20;;;4.55;;
20533;SDS011;12929;56.822;26.056;2023-07-31T02:52:06;7.75;;;4.43;;
20533;SDS011;12929;56.822;26.056;2023-07-31T02:54:34;7.22;;;5.10;;
20533;SDS011;12929;56.822;26.056;2023-07-31T02:57:01;6.38;;;5.03;;
20533;SDS011;12929;56.822;26.056;2023-07-31T02:59:29;9.63;;;5.50;;
20533;SDS011;12929;56.822;26.056;2023-07-31T03:01:56;9.05;;;6.07;;
20533;SDS011;12929;56.822;26.056;2023-07-31T03:04:25;8.02;;;6.03;;
20533;SDS011;12929;56.822;26.056;2023-07-31T03:06:52;9.15;;;6.18;;
20533;SDS011;12929;56.822;26.056;2023-07-31T03:09:20;9.82;;;6.25;;
20533;SDS011;12929;56.822;26.056;2023-07-31T03:11:48;9.05;;;5.72;;
20533;SDS011;12929;56.822;26.056;2023-07-31T03:14:15;8.70;;;6.47;;
20533;SDS011;12929;56.822;26.056;2023-07-31T03:16:44;6.95;;;5.00;;
20533;SDS011;12929;56.822;26.056;2023-07-31T03:19:11;10.88;;;5.28;;
20533;SDS011;12929;56.822;26.056;2023-07-31T03:21:38;5.47;;;4.40;;
20533;SDS011;12929;56.822;26.056;2023-07-31T03:24:06;7.65;;;5.00;;
20533;SDS011;12929;56.822;26.056;2023-07-31T03:26:33;8.25;;;5.60;;
20533;SDS011;12929;56.822;26.056;2023-07-31T03:29:03;6.75;;;4.95;;
20533;SDS011;12929;56.822;26.056;2023-07-31T03:31:31;6.63;;;5.10;;
20533;SDS011;12929;56.822;26.056;2023-07-31T03:33:59;8.55;;;6.63;;
20533;SDS011;12929;56.822;26.056;2023-07-31T03:36:27;6.63;;;4.50;;
20533;SDS011;12929;56.822;26.056;2023-07-31T03:38:55;7.28;;;4.30;;
20533;SDS011;12929;56.822;26.056;2023-07-31T03:41:22;7.95;;;5.70;;
20533;SDS011;12929;56.822;26.056;2023-07-31T03:43:51;8.63;;;5.82;;
20533;SDS011;12929;56.822;26.056;2023-07-31T03:46:19;11.18;;;7.25;;
20533;SDS011;12929;56.822;26.056;2023-07-31T03:48:48;12.43;;;7.88;;
20533;SDS011;12929;56.822;26.056;2023-07-31T03:51:16;9.07;;;5.88;;
20533;SDS011;12929;56.822;26.056;2023-07-31T03:53:44;9.18;;;5.80;;
20533;SDS011;12929;56.822;26.056;2023-07-31T03:56:13;8.10;;;5.07;;
20533;SDS011;12929;56.822;26.056;2023-07-31T03:58:41;5.32;;;4.43;;
20533;SDS011;12929;56.822;26.056;2023-07-31T04:01:09;7.50;;;5.70;;
20533;SDS011;12929;56.822;26.056;2023-07-31T04:03:36;11.60;;;8.90;;
20533;SDS011;12929;56.822;26.056;2023-07-31T04:06:04;10.35;;;6.35;;
20533;SDS011;12929;56.822;26.056;2023-07-31T04:08:33;11.23;;;7.30;;
20533;SDS011;12929;56.822;26.056;2023-07-31T04:11:01;12.05;;;8.52;;
20533;SDS011;12929;56.822;26.056;2023-07-31T04:13:29;10.20;;;7.43;;
20533;SDS011;12929;56.822;26.056;2023-07-31T04:15:57;13.57;;;7.80;;
20533;SDS011;12929;56.822;26.056;2023-07-31T04:18:25;13.02;;;7.82;;
20533;SDS011;12929;56.822;26.056;2023-07-31T04:20:53;14.43;;;8.75;;
20533;SDS011;12929;56.822;26.056;2023-07-31T04:23:21;12.80;;;7.70;;
20533;SDS011;12929;56.822;26.056;2023-07-31T04:25:48;10.50;;;8.23;;
20533;SDS011;12929;56.822;26.056;2023-07-31T04:28:16;12.05;;;8.00;;
20533;SDS011;12929;56.822;26.056;2023-07-31T04:30:46;11.07;;;8.57;;
20533;SDS011;12929;56.822;26.056;2023-07-31T04:33:16;14.55;;;10.23;;
20533;SDS011;12929;56.822;26.056;2023-07-31T04:35:53;15.43;;;11.68;;
20533;SDS011;12929;56.822;26.056;2023-07-31T04:38:21;14.80;;;10.70;;
20533;SDS011;12929;56.822;26.056;2023-07-31T04:40:49;16.77;;;10.32;;
20533;SDS011;12929;56.822;26.056;2023-07-31T04:43:16;19.63;;;13.82;;
20533;SDS011;12929;56.822;26.056;2023-07-31T04:45:47;15.55;;;11.27;;
20533;SDS011;12929;56.822;26.056;2023-07-31T04:48:16;12.55;;;9.68;;
20533;SDS011;12929;56.822;26.056;2023-07-31T04:50:44;13.30;;;10.05;;
20533;SDS011;12929;56.822;26.056;2023-07-31T04:53:11;17.27;;;12.77;;
20533;SDS011;12929;56.822;26.056;2023-07-31T04:55:42;21.80;;;15.60;;
20533;SDS011;12929;56.822;26.056;2023-07-31T04:58:14;16.58;;;12.10;;
20533;SDS011;12929;56.822;26.056;2023-07-31T05:00:41;18.42;;;13.05;;
20533;SDS011;12929;56.822;26.056;2023-07-31T05:03:09;16.85;;;11.00;;
20533;SDS011;12929;56.822;26.056;2023-07-31T05:05:38;15.88;;;11.15;;
20533;SDS011;12929;56.822;26.056;2023-07-31T05:08:06;15.23;;;11.50;;
20533;SDS011;12929;56.822;26.056;2023-07-31T05:10:33;16.98;;;11.43;;
20533;SDS011;12929;56.822;26.056;2023-07-31T05:13:01;17.65;;;12.05;;
20533;SDS011;12929;56.822;26.056;2023-07-31T05:15:28;17.05;;;11.40;;
20533;SDS011;12929;56.822;26.056;2023-07-31T05:17:56;17.15;;;12.00;;
20533;SDS011;12929;56.822;26.056;2023-07-31T05:20:23;19.98;;;14.75;;
20533;SDS011;12929;56.822;26.056;2023-07-31T05:22:51;22.10;;;15.55;;
20533;SDS011;12929;56.822;26.056;2023-07-31T05:25:19;19.60;;;13.50;;
20533;SDS011;12929;56.822;26.056;2023-07-31T05:27:46;16.52;;;12.30;;
20533;SDS011;12929;56.822;26.056;2023-07-31T05:30:14;17.40;;;11.88;;
20533;SDS011;12929;56.822;26.056;2023-07-31T05:32:41;18.08;;;12.18;;
20533;SDS011;12929;56.822;26.056;2023-07-31T05:35:09;17.52;;;11.35;;
20533;SDS011;12929;56.822;26.056;2023-07-31T05:37:36;17.70;;;11.60;;
20533;SDS011;12929;56.822;26.056;2023-07-31T05:40:04;16.15;;;11.90;;
20533;SDS011;12929;56.822;26.056;2023-07-31T05:42:32;14.50;;;10.05;;
20533;SDS011;12929;56.822;26.056;2023-07-31T05:45:00;17.25;;;11.82;;
20533;SDS011;12929;56.822;26.056;2023-07-31T05:47:27;18.25;;;11.80;;
20533;SDS011;12929;56.822;26.056;2023-07-31T05:49:55;16.60;;;11.80;;
20533;SDS011;12929;56.822;26.056;2023-07-31T05:52:22;15.90;;;10.98;;
20533;SDS011;12929;56.822;26.056;2023-07-31T05:54:49;21.05;;;13.30;;
20533;SDS011;12929;56.822;26.056;2023-07-31T05:57:17;21.65;;;13.40;;
20533;SDS011;12929;56.822;26.056;2023-07-31T05:59:44;18.20;;;12.90;;
20533;SDS011;12929;56.822;26.056;2023-07-31T06:02:12;16.85;;;12.10;;
20533;SDS011;12929;56.822;26.056;2023-07-31T06:04:40;17.60;;;12.45;;
20533;SDS011;12929;56.822;26.056;2023-07-31T06:07:07;18.52;;;12.77;;
20533;SDS011;12929;56.822;26.056;2023-07-31T06:09:35;21.17;;;14.18;;
20533;SDS011;12929;56.822;26.056;2023-07-31T06:12:02;17.15;;;11.98;;
20533;SDS011;12929;56.822;26.056;2023-07-31T06:14:30;19.80;;;13.95;;
20533;SDS011;12929;56.822;26.056;2023-07-31T06:16:58;21.98;;;15.57;;
20533;SDS011;12929;56.822;26.056;2023-07-31T06:19:25;21.55;;;14.73;;
20533;SDS011;12929;56.822;26.056;2023-07-31T06:21:53;23.13;;;14.05;;
20533;SDS011;12929;56.822;26.056;2023-07-31T06:24:20;20.00;;;13.55;;
20533;SDS011;12929;56.822;26.056;2023-07-31T06:26:48;22.92;;;15.80;;
20533;SDS011;12929;56.822;26.056;2023-07-31T06:29:17;21.25;;;14.85;;
20533;SDS011;12929;56.822;26.056;2023-07-31T06:31:45;19.80;;;13.82;;
20533;SDS011;12929;56.822;26.056;2023-07-31T06:34:12;19.63;;;12.82;;
20533;SDS011;12929;56.822;26.056;2023-07-31T06:36:40;19.15;;;12.15;;
20533;SDS011;12929;56.822;26.056;2023-07-31T06:39:08;23.70;;;13.80;;
20533;SDS011;12929;56.822;26.056;2023-07-31T06:41:35;23.80;;;13.98;;
20533;SDS011;12929;56.822;26.056;2023-07-31T06:44:05;21.77;;;14.45;;
20533;SDS011;12929;56.822;26.056;2023-07-31T06:46:32;21.23;;;14.25;;
20533;SDS011;12929;56.822;26.056;2023-07-31T06:49:00;19.17;;;13.30;;
20533;SDS011;12929;56.822;26.056;2023-07-31T06:51:29;21.02;;;14.70;;
20533;SDS011;12929;56.822;26.056;2023-07-31T06:53:58;25.25;;;16.60;;
20533;SDS011;12929;56.822;26.056;2023-07-31T06:56:25;22.25;;;14.65;;
20533;SDS011;12929;56.822;26.056;2023-07-31T06:58:55;20.95;;;14.82;;
20533;SDS011;12929;56.822;26.056;2023-07-31T07:01:22;23.98;;;15.10;;
20533;SDS011;12929;56.822;26.056;2023-07-31T07:03:50;21.88;;;13.98;;
20533;SDS011;12929;56.822;26.056;2023-07-31T07:06:17;23.10;;;15.25;;
20533;SDS011;12929;56.822;26.056;2023-07-31T07:08:45;20.75;;;14.68;;
20533;SDS011;12929;56.822;26.056;2023-07-31T07:11:12;21.00;;;14.68;;
20533;SDS011;12929;56.822;26.056;2023-07-31T07:13:40;22.48;;;15.75;;
20533;SDS011;12929;56.822;26.056;2023-07-31T07:16:07;22.55;;;14.68;;
20533;SDS011;12929;56.822;26.056;2023-07-31T07:18:37;22.08;;;15.73;;
20533;SDS011;12929;56.822;26.056;2023-07-31T07:21:15;23.08;;;14.85;;
20533;SDS011;12929;56.822;26.056;2023-07-31T07:23:44;22.33;;;15.00;;
20533;SDS011;12929;56.822;26.056;2023-07-31T07:26:12;23.95;;;15.30;;
20533;SDS011;12929;56.822;26.056;2023-07-31T07:28:40;23.40;;;15.45;;
20533;SDS011;12929;56.822;26.056;2023-07-31T07:31:09;18.88;;;13.63;;
20533;SDS011;12929;56.822;26.056;2023-07-31T07:33:37;23.85;;;14.70;;
20533;SDS011;12929;56.822;26.056;2023-07-31T07:36:16;18.73;;;13.70;;
20533;SDS011;12929;56.822;26.056;2023-07-31T07:38:44;19.05;;;13.63;;
20533;SDS011;12929;56.822;26.056;2023-07-31T07:41:12;20.02;;;13.35;;
20533;SDS011;12929;56.822;26.056;2023-07-31T07:43:42;18.70;;;13.57;;
20533;SDS011;12929;56.822;26.056;2023-07-31T07:46:10;16.63;;;12.70;;
20533;SDS011;12929;56.822;26.056;2023-07-31T07:48:37;16.35;;;10.63;;
20533;SDS011;12929;56.822;26.056;2023-07-31T07:51:08;17.08;;;11.40;;
20533;SDS011;12929;56.822;26.056;2023-07-31T07:53:35;15.90;;;12.23;;
20533;SDS011;12929;56.822;26.056;2023-07-31T07:56:03;15.48;;;11.38;;
20533;SDS011;12929;56.822;26.056;2023-07-31T07:58:32;16.88;;;12.35;;
20533;SDS011;12929;56.822;26.056;2023-07-31T08:01:01;16.65;;;10.48;;
20533;SDS011;12929;56.822;26.056;2023-07-31T08:03:31;13.57;;;10.38;;
20533;SDS011;12929;56.822;26.056;2023-07-31T08:05:59;16.92;;;12.73;;
20533;SDS011;12929;56.822;26.056;2023-07-31T08:08:29;16.25;;;11.73;;
20533;SDS011;12929;56.822;26.056;2023-07-31T08:10:56;14.07;;;10.55;;
20533;SDS011;12929;56.822;26.056;2023-07-31T08:13:25;15.93;;;10.70;;
20533;SDS011;12929;56.822;26.056;2023-07-31T08:15:54;14.60;;;10.35;;
20533;SDS011;12929;56.822;26.056;2023-07-31T08:18:22;14.40;;;10.95;;
20533;SDS011;12929;56.822;26.056;2023-07-31T08:20:49;14.45;;;10.15;;
20533;SDS011;12929;56.822;26.056;2023-07-31T08:23:17;13.60;;;10.25;;
20533;SDS011;12929;56.822;26.056;2023-07-31T08:25:45;13.43;;;10.25;;
20533;SDS011;12929;56.822;26.056;2023-07-31T08:28:15;15.07;;;10.45;;
20533;SDS011;12929;56.822;26.056;2023-07-31T08:30:42;12.77;;;8.80;;
20533;SDS011;12929;56.822;26.056;2023-07-31T08:33:10;12.98;;;9.13;;
20533;SDS011;12929;56.822;26.056;2023-07-31T08:35:38;14.07;;;9.82;;
20533;SDS011;12929;56.822;26.056;2023-07-31T08:38:05;15.07;;;9.90;;
20533;SDS011;12929;56.822;26.056;2023-07-31T08:40:37;12.18;;;9.23;;
20533;SDS011;12929;56.822;26.056;2023-07-31T08:43:05;13.00;;;8.52;;
20533;SDS011;12929;56.822;26.056;2023-07-31T08:45:33;13.40;;;9.80;;
20533;SDS011;12929;56.822;26.056;2023-07-31T08:48:02;12.32;;;8.80;;
20533;SDS011;12929;56.822;26.056;2023-07-31T08:50:30;12.68;;;9.18;;
20533;SDS011;12929;56.822;26.056;2023-07-31T08:52:59;13.77;;;8.85;;
20533;SDS011;12929;56.822;26.056;2023-07-31T08:55:28;14.35;;;8.52;;
20533;SDS011;12929;56.822;26.056;2023-07-31T08:57:58;10.18;;;7.60;;
20533;SDS011;12929;56.822;26.056;2023-07-31T09:00:26;13.68;;;9.18;;
20533;SDS011;12929;56.822;26.056;2023-07-31T09:03:02;11.43;;;8.30;;
20533;SDS011;12929;56.822;26.056;2023-07-31T09:05:36;13.73;;;9.45;;
20533;SDS011;12929;56.822;26.056;2023-07-31T09:08:07;12.45;;;8.65;;
20533;SDS011;12929;56.822;26.056;2023-07-31T09:10:42;10.32;;;7.82;;
20533;SDS011;12929;56.822;26.056;2023-07-31T09:13:12;9.40;;;6.85;;
20533;SDS011;12929;56.822;26.056;2023-07-31T09:15:47;11.38;;;7.45;;
20533;SDS011;12929;56.822;26.056;2023-07-31T09:18:16;9.13;;;7.13;;
20533;SDS011;12929;56.822;26.056;2023-07-31T09:20:47;11.23;;;7.68;;
20533;SDS011;12929;56.822;26.056;2023-07-31T09:23:44;10.32;;;7.63;;
20533;SDS011;12929;56.822;26.056;2023-07-31T09:26:28;11.35;;;7.00;;
20533;SDS011;12929;56.822;26.056;2023-07-31T09:29:01;9.90;;;6.63;;
20533;SDS011;12929;56.822;26.056;2023-07-31T09:31:41;8.70;;;6.13;;
20533;SDS011;12929;56.822;26.056;2023-07-31T09:34:10;8.52;;;5.70;;
20533;SDS011;12929;56.822;26.056;2023-07-31T09:36:45;6.82;;;5.15;;
20533;SDS011;12929;56.822;26.056;2023-07-31T09:39:15;7.03;;;5.10;;
20533;SDS011;12929;56.822;26.056;2023-07-31T09:41:45;6.78;;;4.97;;
20533;SDS011;12929;56.822;26.056;2023-07-31T09:44:37;6.00;;;5.25;;
20533;SDS011;12929;56.822;26.056;2023-07-31T09:47:08;8.52;;;5.75;;
20533;SDS011;12929;56.822;26.056;2023-07-31T09:49:51;5.65;;;4.50;;
20533;SDS011;12929;56.822;26.056;2023-07-31T09:52:26;5.93;;;4.80;;
20533;SDS011;12929;56.822;26.056;2023-07-31T09:54:54;5.25;;;4.50;;
20533;SDS011;12929;56.822;26.056;2023-07-31T09:57:29;5.68;;;4.80;;
20533;SDS011;12929;56.822;26.056;2023-07-31T09:59:58;7.35;;;5.20;;
20533;SDS011;12929;56.822;26.056;2023-07-31T10:02:37;6.88;;;4.93;;
20533;SDS011;12929;56.822;26.056;2023-07-31T10:05:06;7.47;;;5.05;;
20533;SDS011;12929;56.822;26.056;2023-07-31T10:07:36;5.95;;;4.88;;
20533;SDS011;12929;56.822;26.056;2023-07-31T10:10:08;8.77;;;5.72;;
20533;SDS011;12929;56.822;26.056;2023-07-31T10:12:40;9.00;;;6.13;;
20533;SDS011;12929;56.822;26.056;2023-07-31T10:15:09;6.75;;;5.03;;
20533;SDS011;12929;56.822;26.056;2023-07-31T10:17:44;8.05;;;5.03;;
20533;SDS011;12929;56.822;26.056;2023-07-31T10:20:15;5.43;;;4.30;;
20533;SDS011;12929;56.822;26.056;2023-07-31T10:22:43;5.03;;;4.50;;
20533;SDS011;12929;56.822;26.056;2023-07-31T10:25:15;7.28;;;4.93;;
20533;SDS011;12929;56.822;26.056;2023-07-31T10:27:45;5.85;;;4.70;;
20533;SDS011;12929;56.822;26.056;2023-07-31T10:30:15;9.38;;;4.13;;
20533;SDS011;12929;56.822;26.056;2023-07-31T10:32:46;7.13;;;4.28;;
20533;SDS011;12929;56.822;26.056;2023-07-31T10:35:17;5.63;;;4.40;;
20533;SDS011;12929;56.822;26.056;2023-07-31T10:37:45;4.75;;;4.07;;
20533;SDS011;12929;56.822;26.056;2023-07-31T10:40:26;4.45;;;3.90;;
20533;SDS011;12929;56.822;26.056;2023-07-31T10:42:56;6.20;;;4.70;;
20533;SDS011;12929;56.822;26.056;2023-07-31T10:48:06;5.55;;;4.00;;
20533;SDS011;12929;56.822;26.056;2023-07-31T10:50:51;6.18;;;4.30;;
20533;SDS011;12929;56.822;26.056;2023-07-31T10:53:25;5.65;;;3.92;;
20533;SDS011;12929;56.822;26.056;2023-07-31T10:56:02;6.45;;;4.15;;
20533;SDS011;12929;56.822;26.056;2023-07-31T10:58:32;5.72;;;3.88;;
20533;SDS011;12929;56.822;26.056;2023-07-31T11:01:09;9.70;;;4.40;;
20533;SDS011;12929;56.822;26.056;2023-07-31T11:06:17;5.22;;;3.63;;
20533;SDS011;12929;56.822;26.056;2023-07-31T11:08:46;4.82;;;3.05;;
20533;SDS011;12929;56.822;26.056;2023-07-31T11:11:18;4.70;;;3.60;;
20533;SDS011;12929;56.822;26.056;2023-07-31T11:13:51;5.13;;;3.38;;
20533;SDS011;12929;56.822;26.056;2023-07-31T11:16:21;4.05;;;3.33;;
20533;SDS011;12929;56.822;26.056;2023-07-31T11:18:51;5.15;;;3.47;;
20533;SDS011;12929;56.822;26.056;2023-07-31T11:21:22;5.15;;;3.67;;
20533;SDS011;12929;56.822;26.056;2023-07-31T11:23:51;5.90;;;3.45;;
20533;SDS011;12929;56.822;26.056;2023-07-31T11:26:26;7.43;;;3.65;;
20533;SDS011;12929;56.822;26.056;2023-07-31T11:28:56;5.63;;;3.22;;
20533;SDS011;12929;56.822;26.056;2023-07-31T11:31:24;5.57;;;3.47;;
20533;SDS011;12929;56.822;26.056;2023-07-31T11:34:03;5.13;;;3.75;;
20533;SDS011;12929;56.822;26.056;2023-07-31T11:36:32;3.90;;;3.30;;
20533;SDS011;12929;56.822;26.056;2023-07-31T11:39:09;4.05;;;3.30;;
20533;SDS011;12929;56.822;26.056;2023-07-31T11:41:40;4.57;;;3.63;;
20533;SDS011;12929;56.822;26.056;2023-07-31T11:44:08;3.60;;;3.00;;
20533;SDS011;12929;56.822;26.056;2023-07-31T11:46:52;4.97;;;3.17;;
20533;SDS011;12929;56.822;26.056;2023-07-31T11:49:19;7.30;;;3.70;;
20533;SDS011;12929;56.822;26.056;2023-07-31T11:51:48;7.00;;;3.42;;
20533;SDS011;12929;56.822;26.056;2023-07-31T11:54:16;4.15;;;3.20;;
20533;SDS011;12929;56.822;26.056;2023-07-31T11:56:45;5.25;;;3.17;;
20533;SDS011;12929;56.822;26.056;2023-07-31T11:59:13;5.15;;;2.30;;
20533;SDS011;12929;56.822;26.056;2023-07-31T12:01:40;2.63;;;1.30;;
20533;SDS011;12929;56.822;26.056;2023-07-31T12:04:08;2.47;;;1.50;;
20533;SDS011;12929;56.822;26.056;2023-07-31T12:06:36;2.35;;;1.30;;
20533;SDS011;12929;56.822;26.056;2023-07-31T12:09:07;1.77;;;1.20;;
20533;SDS011;12929;56.822;26.056;2023-07-31T12:11:45;3.17;;;1.10;;
20533;SDS011;12929;56.822;26.056;2023-07-31T12:14:25;3.80;;;1.17;;
20533;SDS011;12929;56.822;26.056;2023-07-31T12:16:59;5.10;;;1.42;;
20533;SDS011;12929;56.822;26.056;2023-07-31T12:19:31;16.75;;;2.17;;
20533;SDS011;12929;56.822;26.056;2023-07-31T12:22:02;13.13;;;2.30;;
20533;SDS011;12929;56.822;26.056;2023-07-31T12:24:40;5.60;;;2.03;;
20533;SDS011;12929;56.822;26.056;2023-07-31T12:27:32;13.27;;;2.90;;
20533;SDS011;12929;56.822;26.056;2023-07-31T12:30:04;10.52;;;2.38;;
20533;SDS011;12929;56.822;26.056;2023-07-31T12:32:47;8.25;;;2.53;;
20533;SDS011;12929;56.822;26.056;2023-07-31T12:35:22;7.10;;;1.80;;
20533;SDS011;12929;56.822;26.056;2023-07-31T12:38:00;4.85;;;1.65;;
20533;SDS011;12929;56.822;26.056;2023-07-31T12:40:28;4.00;;;1.73;;
20533;SDS011;12929;56.822;26.056;2023-07-31T12:43:01;5.07;;;1.60;;
20533;SDS011;12929;56.822;26.056;2023-07-31T12:45:32;7.47;;;2.28;;
20533;SDS011;12929;56.822;26.056;2023-07-31T12:48:00;3.65;;;1.63;;
20533;SDS011;12929;56.822;26.056;2023-07-31T12:50:28;5.65;;;1.50;;
20533;SDS011;12929;56.822;26.056;2023-07-31T12:52:56;4.75;;;1.42;;
20533;SDS011;12929;56.822;26.056;2023-07-31T12:55:24;8.52;;;1.98;;
20533;SDS011;12929;56.822;26.056;2023-07-31T12:57:51;4.88;;;1.70;;
20533;SDS011;12929;56.822;26.056;2023-07-31T13:00:21;5.95;;;1.65;;
20533;SDS011;12929;56.822;26.056;2023-07-31T13:02:49;6.10;;;1.52;;
20533;SDS011;12929;56.822;26.056;2023-07-31T13:05:16;13.18;;;2.90;;
20533;SDS011;12929;56.822;26.056;2023-07-31T13:07:46;5.65;;;1.48;;
20533;SDS011;12929;56.822;26.056;2023-07-31T13:10:18;4.63;;;1.50;;
20533;SDS011;12929;56.822;26.056;2023-07-31T13:12:46;5.13;;;1.50;;
20533;SDS011;12929;56.822;26.056;2023-07-31T13:15:14;3.28;;;1.67;;
20533;SDS011;12929;56.822;26.056;2023-07-31T13:17:45;3.40;;;1.40;;
20533;SDS011;12929;56.822;26.056;2023-07-31T13:20:14;5.05;;;1.40;;
20533;SDS011;12929;56.822;26.056;2023-07-31T13:22:43;3.10;;;1.30;;
20533;SDS011;12929;56.822;26.056;2023-07-31T13:25:15;3.78;;;1.90;;
20533;SDS011;12929;56.822;26.056;2023-07-31T13:27:48;4.50;;;1.90;;
20533;SDS011;12929;56.822;26.056;2023-07-31T13:30:16;3.80;;;1.45;;
20533;SDS011;12929;56.822;26.056;2023-07-31T13:32:46;2.85;;;1.40;;
20533;SDS011;12929;56.822;26.056;2023-07-31T13:35:16;2.40;;;1.35;;
20533;SDS011;12929;56.822;26.056;2023-07-31T13:37:45;4.78;;;1.70;;
20533;SDS011;12929;56.822;26.056;2023-07-31T13:40:14;6.82;;;1.52;;
20533;SDS011;12929;56.822;26.056;2023-07-31T13:42:45;2.35;;;1.52;;
20533;SDS011;12929;56.822;26.056;2023-07-31T13:45:14;4.03;;;1.30;;
20533;SDS011;12929;56.822;26.056;2023-07-31T13:47:50;2.58;;;1.35;;
20533;SDS011;12929;56.822;26.056;2023-07-31T13:50:27;2.90;;;1.52;;
20533;SDS011;12929;56.822;26.056;2023-07-31T13:53:06;1.38;;;1.10;;
20533;SDS011;12929;56.822;26.056;2023-07-31T13:55:41;3.70;;;1.20;;
20533;SDS011;12929;56.822;26.056;2023-07-31T13:58:20;2.38;;;1.30;;
20533;SDS011;12929;56.822;26.056;2023-07-31T14:00:55;3.92;;;1.20;;
20533;SDS011;12929;56.822;26.056;2023-07-31T14:03:26;2.88;;;1.30;;
20533;SDS011;12929;56.822;26.056;2023-07-31T14:05:58;3.67;;;1.38;;
20533;SDS011;12929;56.822;26.056;2023-07-31T14:08:31;3.33;;;1.20;;
20533;SDS011;12929;56.822;26.056;2023-07-31T14:11:09;4.40;;;1.88;;
20533;SDS011;12929;56.822;26.056;2023-07-31T14:13:41;2.75;;;1.08;;
20533;SDS011;12929;56.822;26.056;2023-07-31T14:16:13;4.82;;;1.33;;
20533;SDS011;12929;56.822;26.056;2023-07-31T14:18:48;1.55;;;1.08;;
20533;SDS011;12929;56.822;26.056;2023-07-31T14:21:21;2.65;;;1.35;;
20533;SDS011;12929;56.822;26.056;2023-07-31T14:23:50;2.10;;;1.20;;
20533;SDS011;12929;56.822;26.056;2023-07-31T14:26:20;2.22;;;1.25;;
20533;SDS011;12929;56.822;26.056;2023-07-31T14:28:50;3.22;;;1.20;;
20533;SDS011;12929;56.822;26.056;2023-07-31T14:31:21;2.83;;;1.10;;
20533;SDS011;12929;56.822;26.056;2023-07-31T14:34:06;1.55;;;1.20;;
20533;SDS011;12929;56.822;26.056;2023-07-31T14:36:38;1.60;;;0.98;;
20533;SDS011;12929;56.822;26.056;2023-07-31T14:39:06;1.80;;;1.00;;
20533;SDS011;12929;56.822;26.056;2023-07-31T14:41:34;4.07;;;1.52;;
20533;SDS011;12929;56.822;26.056;2023-07-31T14:44:11;4.20;;;1.75;;
20533;SDS011;12929;56.822;26.056;2023-07-31T14:46:39;6.03;;;1.90;;
20533;SDS011;12929;56.822;26.056;2023-07-31T14:49:09;4.25;;;2.38;;
20533;SDS011;12929;56.822;26.056;2023-07-31T14:51:37;5.35;;;2.10;;
20533;SDS011;12929;56.822;26.056;2023-07-31T14:54:05;4.13;;;1.92;;
20533;SDS011;12929;56.822;26.056;2023-07-31T14:56:32;3.58;;;2.15;;